Time;durP1;ratioP1;P1;durP2;ratioP2;P2;SDS_P1;SDS_P2;PMS_P1;PMS_P2;Temp;Humidity;BMP_temperature;BMP_pressure;BME280_temperature;BME280_humidity;BME280_pressure;Samples;Min_cycle;Max_cycle;Signal;HPM_P1;HPM_P2
2022/08/21 08:53:20;;;;;;;9.57;2.28;;;19.10;97.10;;;;;;5072588;28;20452;-40
2022/08/21 08:55:47;;;;;;;9.68;2.80;;;19.00;97.10;;;;;;5039696;28;20116;-43
2022/08/21 08:58:13;;;;;;;8.88;2.28;;;19.10;97.10;;;;;;5043704;28;20040;-40
2022/08/21 09:00:40;;;;;;;8.38;2.00;;;19.30;96.40;;;;;;5033556;28;20802;-46
2022/08/21 09:03:07;;;;;;;9.43;2.60;;;19.40;96.50;;;;;;5075381;28;20128;-40
2022/08/21 09:05:34;;;;;;;10.90;2.10;;;19.50;96.00;;;;;;5047963;28;20045;-48
2022/08/21 09:08:01;;;;;;;10.32;2.38;;;19.50;95.30;;;;;;5039052;28;20480;-42
2022/08/21 09:10:27;;;;;;;10.98;2.80;;;19.60;95.40;;;;;;5046831;28;20068;-39
2022/08/21 09:12:54;;;;;;;10.20;2.20;;;19.80;95.90;;;;;;5044602;28;20050;-44
2022/08/21 09:15:21;;;;;;;11.98;2.38;;;19.90;94.90;;;;;;5032281;28;20038;-43
2022/08/21 09:17:49;;;;;;;9.48;3.20;;;20.00;94.70;;;;;;5029672;28;20048;-40
2022/08/21 09:20:15;;;;;;;14.23;2.50;;;20.00;94.20;;;;;;5043163;28;20472;-41
2022/08/21 09:22:42;;;;;;;9.25;1.92;;;20.00;93.60;;;;;;5041934;28;20048;-39
2022/08/21 09:25:10;;;;;;;8.10;2.05;;;20.10;94.10;;;;;;5041952;28;20048;-43
2022/08/21 09:27:37;;;;;;;6.65;2.08;;;20.30;94.00;;;;;;5031151;28;20046;-45
2022/08/21 09:30:04;;;;;;;8.40;1.83;;;20.40;92.90;;;;;;5029028;28;20072;-43
2022/08/21 09:32:31;;;;;;;7.88;2.05;;;20.60;92.90;;;;;;5035640;28;20440;-41
2022/08/21 09:35:03;;;;;;;8.98;2.05;;;20.70;92.00;;;;;;5067506;28;20551;-42
2022/08/21 09:37:30;;;;;;;8.55;2.22;;;20.80;92.00;;;;;;5036837;28;20037;-45
2022/08/21 09:39:57;;;;;;;7.63;2.00;;;20.90;92.00;;;;;;5038982;28;20096;-39
2022/08/21 09:42:24;;;;;;;8.05;1.92;;;21.00;91.50;;;;;;5040057;28;20049;-41
2022/08/21 09:44:50;;;;;;;10.77;2.10;;;21.10;91.20;;;;;;5033692;28;20054;-42
2022/08/21 09:47:17;;;;;;;9.85;1.95;;;21.10;90.70;;;;;;5036845;28;20054;-45
2022/08/21 09:49:44;;;;;;;8.02;2.13;;;21.10;90.30;;;;;;5029746;28;20058;-39
2022/08/21 09:52:11;;;;;;;7.43;1.95;;;21.10;90.80;;;;;;5029790;28;20064;-40
2022/08/21 09:54:38;;;;;;;10.00;2.70;;;21.10;91.40;;;;;;5045147;28;20049;-38
2022/08/21 09:59:50;;;;;;;7.47;2.28;;;21.30;91.10;;;;;;5042227;28;20504;-46
2022/08/21 10:02:17;;;;;;;11.00;2.05;;;21.30;91.00;;;;;;5039510;28;20108;-41
2022/08/21 10:04:47;;;;;;;11.13;2.25;;;21.40;90.80;;;;;;5016648;28;20381;-43
2022/08/21 10:07:14;;;;;;;6.63;2.10;;;21.50;90.10;;;;;;5016791;28;20104;-38
2022/08/21 10:09:40;;;;;;;9.23;2.08;;;21.50;90.10;;;;;;5024163;28;20042;-42
2022/08/21 10:12:07;;;;;;;7.07;2.10;;;21.60;89.60;;;;;;5035199;28;20404;-44
2022/08/21 10:14:37;;;;;;;7.03;2.20;;;21.70;90.10;;;;;;5032424;28;20048;-40
2022/08/21 10:17:05;;;;;;;9.95;2.13;;;21.90;90.10;;;;;;5035396;28;20485;-44
2022/08/21 10:19:32;;;;;;;11.02;2.08;;;22.10;89.50;;;;;;5033778;28;20049;-40
2022/08/21 10:21:59;;;;;;;5.05;2.08;;;22.40;89.00;;;;;;5024523;28;20385;-45
2022/08/21 10:24:25;;;;;;;8.48;1.80;;;22.50;84.80;;;;;;5034927;28;20044;-46
2022/08/21 10:26:57;;;;;;;5.95;2.20;;;22.40;85.80;;;;;;5030489;28;20061;-41
2022/08/21 10:29:24;;;;;;;7.63;2.20;;;22.50;84.80;;;;;;5019570;28;20104;-43
2022/08/21 10:31:51;;;;;;;7.90;2.00;;;22.60;85.30;;;;;;5022220;28;20041;-41
2022/08/21 10:34:18;;;;;;;8.25;1.70;;;22.60;83.40;;;;;;5022938;28;20404;-43
2022/08/21 10:36:45;;;;;;;11.82;2.30;;;22.70;82.90;;;;;;5022901;28;20038;-43
2022/08/21 10:39:11;;;;;;;7.35;1.80;;;22.70;84.50;;;;;;5024976;28;20393;-51
2022/08/21 10:41:58;;;;;;;6.70;1.83;;;22.80;82.90;;;;;;5025007;28;20087;-43
2022/08/21 10:44:26;;;;;;;8.32;2.10;;;22.80;83.00;;;;;;5020497;28;20042;-42
2022/08/21 10:46:55;;;;;;;8.98;2.20;;;23.00;84.00;;;;;;5015472;28;20045;-46
2022/08/21 10:49:22;;;;;;;8.07;2.20;;;23.20;82.70;;;;;;5020952;28;20052;-48
2022/08/21 10:51:48;;;;;;;7.00;1.80;;;23.30;81.20;;;;;;5027758;28;20440;-49
2022/08/21 10:54:15;;;;;;;6.20;1.90;;;23.40;81.30;;;;;;5015956;28;20454;-43
2022/08/21 10:56:48;;;;;;;6.95;1.77;;;23.50;80.70;;;;;;5027276;28;20120;-46
2022/08/21 10:59:15;;;;;;;8.20;2.22;;;23.40;80.30;;;;;;5033521;28;20484;-47
2022/08/21 11:01:42;;;;;;;9.77;2.15;;;23.50;81.20;;;;;;5024985;28;20388;-41
2022/08/21 11:04:09;;;;;;;4.53;1.70;;;23.50;80.40;;;;;;5019127;28;20045;-44
2022/08/21 11:06:35;;;;;;;7.50;2.00;;;23.40;80.40;;;;;;5034037;28;20476;-46
2022/08/21 11:09:02;;;;;;;7.10;1.90;;;23.40;80.90;;;;;;5029737;28;20038;-42
2022/08/21 11:11:29;;;;;;;7.38;2.20;;;23.40;80.40;;;;;;5022733;28;20041;-51
2022/08/21 11:14:01;;;;;;;6.78;2.10;;;23.50;80.80;;;;;;5016669;28;20053;-48
2022/08/21 11:16:28;;;;;;;7.53;2.00;;;23.70;81.00;;;;;;5022736;28;20036;-43
2022/08/21 11:18:55;;;;;;;5.70;2.10;;;23.80;79.80;;;;;;5026451;28;20476;-47
2022/08/21 11:21:22;;;;;;;8.85;1.95;;;24.00;80.80;;;;;;5019036;28;20038;-46
2022/08/21 11:23:49;;;;;;;9.18;2.40;;;24.00;78.90;;;;;;5028101;28;20036;-47
2022/08/21 11:26:16;;;;;;;10.25;2.28;;;23.90;79.00;;;;;;5036273;28;20496;-44
2022/08/21 18:05:03;;;;;;;14.82;2.70;;;23.30;84.00;;;;;;5069094;28;20375;-39
2022/08/21 18:07:30;;;;;;;11.13;2.60;;;23.50;83.60;;;;;;5049171;28;20412;-40
2022/08/21 18:09:58;;;;;;;10.88;2.75;;;23.80;83.40;;;;;;5047802;28;20484;-43
2022/08/21 18:12:25;;;;;;;11.50;2.78;;;24.10;83.00;;;;;;5039573;28;20075;-43
2022/08/21 18:14:52;;;;;;;10.77;2.72;;;24.40;82.80;;;;;;5041831;28;20056;-46
2022/08/21 18:17:19;;;;;;;12.60;3.10;;;24.60;82.20;;;;;;5049468;28;20045;-38
2022/08/21 18:19:46;;;;;;;12.00;2.67;;;24.80;81.80;;;;;;5050105;28;20049;-45
2022/08/21 18:22:14;;;;;;;9.80;2.70;;;24.60;81.80;;;;;;5047998;28;20050;-42
2022/08/21 18:24:42;;;;;;;11.13;2.85;;;24.40;81.90;;;;;;5047949;28;20041;-43
2022/08/21 18:27:09;;;;;;;9.63;2.83;;;24.50;82.40;;;;;;5055914;28;20113;-43
2022/08/21 18:29:36;;;;;;;11.50;2.45;;;24.40;82.40;;;;;;5049661;28;20798;-45
2022/08/21 18:32:13;;;;;;;9.77;2.53;;;24.20;82.60;;;;;;5049121;28;20045;-38
2022/08/21 18:34:57;;;;;;;11.02;2.55;;;23.90;83.00;;;;;;5046039;28;20072;-41
2022/08/21 18:37:24;;;;;;;9.20;2.40;;;23.70;83.40;;;;;;5046880;28;20392;-43
2022/08/21 18:39:50;;;;;;;9.95;3.05;;;23.50;83.80;;;;;;5047571;28;20037;-48
2022/08/21 18:42:17;;;;;;;10.55;2.75;;;23.40;84.40;;;;;;5048101;28;20143;-50
2022/08/21 18:44:46;;;;;;;9.07;2.50;;;23.20;84.80;;;;;;5048015;28;20043;-51
2022/08/21 18:47:14;;;;;;;9.93;2.58;;;23.10;85.50;;;;;;5048326;28;20111;-41
2022/08/21 18:49:40;;;;;;;10.68;2.60;;;22.90;85.70;;;;;;5047164;28;20362;-46
2022/08/21 18:52:07;;;;;;;10.98;2.83;;;22.80;86.00;;;;;;5049311;28;20504;-43
2022/08/21 18:54:35;;;;;;;10.43;2.60;;;22.70;86.40;;;;;;5046231;28;20045;-41
2022/08/21 18:57:08;;;;;;;9.48;2.67;;;22.50;87.00;;;;;;5044558;28;20549;-45
2022/08/21 18:59:35;;;;;;;11.13;3.05;;;22.40;87.40;;;;;;5045786;28;20042;-48
2022/08/21 19:02:06;;;;;;;14.45;3.30;;;22.30;87.70;;;;;;5048581;28;20124;-42
2022/08/21 19:04:34;;;;;;;11.13;2.83;;;22.20;88.30;;;;;;5045549;28;20056;-44
2022/08/21 19:07:12;;;;;;;12.90;3.33;;;22.10;88.50;;;;;;5048548;28;20388;-39
2022/08/21 19:09:39;;;;;;;10.90;3.28;;;22.10;88.80;;;;;;5043357;28;20476;-48
2022/08/21 19:12:06;;;;;;;13.50;3.22;;;21.90;88.90;;;;;;5046449;28;20041;-45
2022/08/21 19:14:53;;;;;;;8.65;2.38;;;21.90;89.50;;;;;;5036650;28;20049;-42
2022/08/21 19:17:20;;;;;;;10.98;2.75;;;21.80;89.50;;;;;;5033327;28;20041;-40
2022/08/21 19:19:47;;;;;;;13.68;3.08;;;21.70;90.00;;;;;;5032844;28;20033;-45
2022/08/21 19:22:17;;;;;;;9.38;2.75;;;21.60;90.20;;;;;;5034829;28;20045;-40
2022/08/21 19:24:44;;;;;;;12.00;2.63;;;21.60;90.20;;;;;;5035154;28;20052;-45
2022/08/21 19:27:31;;;;;;;11.30;3.13;;;21.50;90.40;;;;;;5032276;28;20038;-42
2022/08/21 19:29:58;;;;;;;11.93;2.78;;;21.40;90.50;;;;;;5032399;28;20484;-47
2022/08/21 19:32:25;;;;;;;10.23;2.53;;;21.40;90.80;;;;;;5029489;28;20042;-45
2022/08/21 19:34:52;;;;;;;10.23;2.80;;;21.40;90.80;;;;;;5034596;28;20125;-44
2022/08/21 19:37:19;;;;;;;10.23;2.60;;;21.30;91.00;;;;;;5034609;28;20056;-43
2022/08/21 19:39:46;;;;;;;14.60;3.03;;;21.20;91.30;;;;;;5031687;28;20064;-44
2022/08/21 19:42:16;;;;;;;11.05;3.25;;;21.10;91.40;;;;;;5030312;28;20100;-41
2022/08/21 19:44:42;;;;;;;12.63;2.67;;;21.00;91.60;;;;;;5034746;28;20546;-46
2022/08/21 19:47:09;;;;;;;10.50;3.00;;;21.10;91.60;;;;;;5033885;28;20512;-42
2022/08/21 19:49:36;;;;;;;10.05;2.60;;;21.00;91.90;;;;;;5034996;28;20053;-41
2022/08/21 19:52:03;;;;;;;12.68;3.05;;;20.90;92.00;;;;;;5035019;28;20499;-42
2022/08/21 19:54:39;;;;;;;11.30;3.33;;;20.80;92.10;;;;;;5033816;28;20069;-40
2022/08/21 19:57:08;;;;;;;10.35;3.08;;;20.80;92.10;;;;;;5035018;28;20496;-42
2022/08/21 19:59:34;;;;;;;10.40;3.22;;;20.70;92.60;;;;;;5034605;28;20048;-44
2022/08/21 20:02:01;;;;;;;11.38;2.80;;;20.70;92.60;;;;;;5033731;28;20053;-45
2022/08/21 20:04:28;;;;;;;14.23;3.30;;;20.60;92.70;;;;;;5033723;28;20054;-45
2022/08/21 20:06:55;;;;;;;9.15;2.40;;;20.50;92.80;;;;;;5034021;28;20045;-41
2022/08/21 20:09:21;;;;;;;12.93;2.30;;;20.50;92.90;;;;;;5034581;28;20037;-43
2022/08/21 20:11:48;;;;;;;13.75;2.67;;;20.50;92.90;;;;;;5033602;28;20068;-40
2022/08/21 20:14:15;;;;;;;8.95;2.70;;;20.40;93.00;;;;;;5033843;28;20046;-48
2022/08/21 20:16:42;;;;;;;14.43;3.15;;;20.40;93.00;;;;;;5034514;28;20412;-40
2022/08/21 20:19:08;;;;;;;8.85;2.70;;;20.30;93.30;;;;;;5033926;28;20046;-44
2022/08/21 20:21:35;;;;;;;11.43;2.90;;;20.30;93.20;;;;;;5034622;28;20045;-56
2022/08/21 20:24:09;;;;;;;10.77;3.35;;;20.20;93.20;;;;;;5034345;28;20157;-43
2022/08/21 20:26:40;;;;;;;10.40;2.42;;;20.20;93.40;;;;;;5032884;28;20052;-39
2022/08/21 20:29:14;;;;;;;10.40;2.78;;;20.10;93.30;;;;;;5033029;28;20065;-43
2022/08/21 20:31:41;;;;;;;10.63;2.50;;;20.10;93.40;;;;;;5034526;28;20443;-41
2022/08/21 20:34:08;;;;;;;8.05;2.63;;;20.00;93.30;;;;;;5032434;28;20128;-45
2022/08/21 20:36:35;;;;;;;13.25;2.72;;;20.00;93.50;;;;;;5034066;28;20416;-41
2022/08/21 20:39:02;;;;;;;10.32;2.60;;;19.90;93.60;;;;;;5032992;28;20051;-44
2022/08/21 20:41:29;;;;;;;9.70;2.40;;;20.00;93.70;;;;;;5034281;28;20047;-46
2022/08/21 20:43:56;;;;;;;10.77;2.50;;;19.90;93.60;;;;;;5034019;28;20064;-43
2022/08/21 20:46:23;;;;;;;9.40;2.40;;;19.80;93.70;;;;;;5032604;28;20041;-41
2022/08/21 20:48:50;;;;;;;10.60;2.53;;;19.80;93.60;;;;;;5033133;28;20475;-45
2022/08/21 20:51:17;;;;;;;11.13;2.60;;;19.70;93.50;;;;;;5033897;28;20095;-46
2022/08/21 20:53:44;;;;;;;9.50;2.63;;;19.70;93.60;;;;;;5033264;28;20053;-42
2022/08/21 20:56:13;;;;;;;17.02;3.33;;;19.60;93.80;;;;;;5033975;28;20456;-44
2022/08/21 20:58:41;;;;;;;7.57;2.47;;;19.60;93.80;;;;;;5033669;28;20099;-40
2022/08/21 21:01:07;;;;;;;11.65;2.90;;;19.60;93.80;;;;;;5032507;28;20076;-42
2022/08/21 21:03:34;;;;;;;10.88;2.88;;;19.50;94.10;;;;;;5031676;28;20050;-46
2022/08/21 21:06:02;;;;;;;11.98;2.75;;;19.50;94.00;;;;;;5033885;28;20461;-39
2022/08/21 21:08:29;;;;;;;14.90;3.50;;;19.40;94.00;;;;;;5033640;28;20120;-40
2022/08/21 21:10:55;;;;;;;12.73;2.72;;;19.40;94.20;;;;;;5033643;28;20439;-43
2022/08/21 21:13:22;;;;;;;11.80;3.05;;;19.40;94.20;;;;;;5033515;28;20033;-42
2022/08/21 21:15:49;;;;;;;11.63;3.13;;;19.30;94.30;;;;;;5033665;28;20049;-42
2022/08/21 21:18:16;;;;;;;9.27;2.55;;;19.30;94.20;;;;;;5033357;28;20041;-41
2022/08/21 21:20:42;;;;;;;13.88;3.63;;;19.20;94.40;;;;;;5032125;28;20053;-39
2022/08/21 21:23:11;;;;;;;9.15;2.78;;;19.20;94.60;;;;;;5033294;28;20049;-43
2022/08/21 21:25:38;;;;;;;11.35;3.03;;;19.10;94.60;;;;;;5032761;28;20128;-44
2022/08/21 21:28:06;;;;;;;11.98;3.08;;;19.00;94.90;;;;;;5033285;28;20136;-40
2022/08/21 21:30:38;;;;;;;14.13;2.85;;;19.00;94.80;;;;;;5033259;28;20068;-42
2022/08/21 21:33:05;;;;;;;12.38;3.30;;;19.00;94.90;;;;;;5032485;28;20431;-46
2022/08/21 21:35:32;;;;;;;11.13;2.90;;;18.90;95.00;;;;;;5033448;28;20393;-42
2022/08/21 21:38:18;;;;;;;9.98;2.72;;;18.90;95.00;;;;;;5032355;28;20538;-44
2022/08/21 21:40:45;;;;;;;9.27;2.63;;;18.90;95.00;;;;;;5033180;28;20037;-44
2022/08/21 21:43:12;;;;;;;9.77;2.80;;;18.90;95.10;;;;;;5032895;28;20128;-39
2022/08/21 21:45:39;;;;;;;10.38;2.95;;;18.90;95.20;;;;;;5033060;28;20037;-43
2022/08/21 21:48:06;;;;;;;8.93;3.20;;;18.80;95.30;;;;;;5033128;28;20046;-38
2022/08/21 21:50:32;;;;;;;7.10;2.20;;;18.80;95.20;;;;;;5032879;28;20044;-43
2022/08/21 21:53:00;;;;;;;12.45;2.83;;;18.80;95.60;;;;;;5032880;28;20087;-41
2022/08/21 21:55:27;;;;;;;10.43;2.75;;;18.80;95.20;;;;;;5029914;28;20048;-43
2022/08/21 21:57:54;;;;;;;10.57;3.20;;;18.80;95.30;;;;;;5031494;28;20063;-43
2022/08/21 22:00:21;;;;;;;12.13;3.45;;;18.70;95.40;;;;;;5029897;28;20435;-45
2022/08/21 22:02:52;;;;;;;10.27;2.90;;;18.70;95.20;;;;;;5030959;28;20037;-43
2022/08/21 22:05:20;;;;;;;8.68;2.40;;;18.70;95.40;;;;;;5031582;28;20140;-41
2022/08/21 22:07:47;;;;;;;10.65;2.35;;;18.70;95.40;;;;;;5031595;28;20519;-43
